sensor_id;sensor_type;location;lat;lon;timestamp;P1;durP1;ratioP1;P2;durP2;ratioP2
31716;SDS011;18301;51.076;17.046;2023-01-15T00:02:59;4.65;;;2.28;;
31716;SDS011;18301;51.076;17.046;2023-01-15T00:08:01;3.47;;;2.03;;
31716;SDS011;18301;51.076;17.046;2023-01-15T00:13:02;4.82;;;1.95;;
31716;SDS011;18301;51.076;17.046;2023-01-15T00:18:04;3.67;;;2.20;;
31716;SDS011;18301;51.076;17.046;2023-01-15T00:23:05;3.42;;;2.05;;
31716;SDS011;18301;51.076;17.046;2023-01-15T00:28:27;3.63;;;2.15;;
31716;SDS011;18301;51.076;17.046;2023-01-15T00:33:28;3.05;;;2.13;;
31716;SDS011;18301;51.076;17.046;2023-01-15T00:38:30;3.90;;;2.28;;
31716;SDS011;18301;51.076;17.046;2023-01-15T00:43:31;2.42;;;1.98;;
31716;SDS011;18301;51.076;17.046;2023-01-15T00:48:33;4.07;;;2.75;;
31716;SDS011;18301;51.076;17.046;2023-01-15T00:53:35;4.45;;;2.53;;
31716;SDS011;18301;51.076;17.046;2023-01-15T00:58:36;5.07;;;2.92;;
31716;SDS011;18301;51.076;17.046;2023-01-15T01:03:38;3.75;;;2.70;;
31716;SDS011;18301;51.076;17.046;2023-01-15T01:08:40;4.90;;;2.63;;
31716;SDS011;18301;51.076;17.046;2023-01-15T01:13:41;6.85;;;2.45;;
31716;SDS011;18301;51.076;17.046;2023-01-15T01:18:43;5.13;;;2.60;;
31716;SDS011;18301;51.076;17.046;2023-01-15T01:23:45;3.95;;;2.15;;
31716;SDS011;18301;51.076;17.046;2023-01-15T01:28:50;6.97;;;2.80;;
31716;SDS011;18301;51.076;17.046;2023-01-15T01:33:53;5.63;;;3.08;;
31716;SDS011;18301;51.076;17.046;2023-01-15T01:38:56;6.93;;;2.90;;
31716;SDS011;18301;51.076;17.046;2023-01-15T01:49:08;4.20;;;2.83;;
31716;SDS011;18301;51.076;17.046;2023-01-15T01:54:13;4.03;;;2.33;;
31716;SDS011;18301;51.076;17.046;2023-01-15T01:59:19;3.42;;;2.47;;
31716;SDS011;18301;51.076;17.046;2023-01-15T02:04:22;4.38;;;2.60;;
31716;SDS011;18301;51.076;17.046;2023-01-15T02:09:27;3.55;;;2.60;;
31716;SDS011;18301;51.076;17.046;2023-01-15T02:14:30;4.40;;;2.47;;
31716;SDS011;18301;51.076;17.046;2023-01-15T02:30:20;4.40;;;2.33;;
31716;SDS011;18301;51.076;17.046;2023-01-15T02:35:30;2.75;;;1.98;;
31716;SDS011;18301;51.076;17.046;2023-01-15T02:40:44;4.80;;;2.72;;
31716;SDS011;18301;51.076;17.046;2023-01-15T02:45:49;3.28;;;2.40;;
31716;SDS011;18301;51.076;17.046;2023-01-15T02:50:54;2.50;;;2.10;;
31716;SDS011;18301;51.076;17.046;2023-01-15T02:56:02;4.75;;;2.70;;
31716;SDS011;18301;51.076;17.046;2023-01-15T03:01:12;2.72;;;2.00;;
31716;SDS011;18301;51.076;17.046;2023-01-15T03:06:21;2.22;;;1.67;;
31716;SDS011;18301;51.076;17.046;2023-01-15T03:11:28;4.47;;;2.47;;
31716;SDS011;18301;51.076;17.046;2023-01-15T03:16:38;2.10;;;1.50;;
31716;SDS011;18301;51.076;17.046;2023-01-15T03:21:52;3.58;;;1.60;;
31716;SDS011;18301;51.076;17.046;2023-01-15T03:26:56;2.50;;;1.52;;
31716;SDS011;18301;51.076;17.046;2023-01-15T03:31:58;2.30;;;1.73;;
31716;SDS011;18301;51.076;17.046;2023-01-15T03:37:00;2.00;;;1.70;;
31716;SDS011;18301;51.076;17.046;2023-01-15T03:52:31;1.85;;;1.48;;
31716;SDS011;18301;51.076;17.046;2023-01-15T03:57:48;1.40;;;1.30;;
31716;SDS011;18301;51.076;17.046;2023-01-15T04:02:55;2.05;;;1.38;;
31716;SDS011;18301;51.076;17.046;2023-01-15T04:07:58;2.25;;;1.40;;
31716;SDS011;18301;51.076;17.046;2023-01-15T04:13:01;1.60;;;1.40;;
31716;SDS011;18301;51.076;17.046;2023-01-15T04:18:02;2.10;;;1.30;;
31716;SDS011;18301;51.076;17.046;2023-01-15T04:23:04;3.20;;;1.30;;
31716;SDS011;18301;51.076;17.046;2023-01-15T04:28:06;3.00;;;1.58;;
31716;SDS011;18301;51.076;17.046;2023-01-15T04:33:08;3.42;;;1.25;;
31716;SDS011;18301;51.076;17.046;2023-01-15T04:38:11;1.67;;;1.20;;
31716;SDS011;18301;51.076;17.046;2023-01-15T04:43:13;2.50;;;1.38;;
31716;SDS011;18301;51.076;17.046;2023-01-15T04:48:33;3.63;;;1.65;;
31716;SDS011;18301;51.076;17.046;2023-01-15T04:53:35;1.98;;;1.50;;
31716;SDS011;18301;51.076;17.046;2023-01-15T04:58:37;3.20;;;1.63;;
31716;SDS011;18301;51.076;17.046;2023-01-15T05:03:38;2.40;;;1.67;;
31716;SDS011;18301;51.076;17.046;2023-01-15T05:08:40;2.08;;;1.50;;
31716;SDS011;18301;51.076;17.046;2023-01-15T05:13:42;2.20;;;1.67;;
31716;SDS011;18301;51.076;17.046;2023-01-15T05:18:44;3.75;;;2.40;;
31716;SDS011;18301;51.076;17.046;2023-01-15T05:23:47;3.10;;;1.65;;
31716;SDS011;18301;51.076;17.046;2023-01-15T05:28:51;2.45;;;1.90;;
31716;SDS011;18301;51.076;17.046;2023-01-15T05:33:54;1.63;;;1.52;;
31716;SDS011;18301;51.076;17.046;2023-01-15T05:38:57;3.95;;;1.60;;
31716;SDS011;18301;51.076;17.046;2023-01-15T05:44:09;2.50;;;1.60;;
31716;SDS011;18301;51.076;17.046;2023-01-15T05:49:13;3.97;;;1.98;;
31716;SDS011;18301;51.076;17.046;2023-01-15T05:54:19;2.08;;;1.60;;
31716;SDS011;18301;51.076;17.046;2023-01-15T05:59:23;2.92;;;1.70;;
31716;SDS011;18301;51.076;17.046;2023-01-15T06:04:26;3.38;;;1.60;;
31716;SDS011;18301;51.076;17.046;2023-01-15T06:09:27;2.25;;;1.90;;
31716;SDS011;18301;51.076;17.046;2023-01-15T06:14:29;3.08;;;1.80;;
31716;SDS011;18301;51.076;17.046;2023-01-15T06:19:31;4.70;;;1.77;;
31716;SDS011;18301;51.076;17.046;2023-01-15T06:24:33;2.30;;;1.90;;
31716;SDS011;18301;51.076;17.046;2023-01-15T06:29:34;2.72;;;1.40;;
31716;SDS011;18301;51.076;17.046;2023-01-15T06:34:36;2.78;;;1.45;;
31716;SDS011;18301;51.076;17.046;2023-01-15T06:39:37;3.33;;;1.50;;
31716;SDS011;18301;51.076;17.046;2023-01-15T06:44:39;2.05;;;1.58;;
31716;SDS011;18301;51.076;17.046;2023-01-15T06:50:00;2.08;;;1.70;;
31716;SDS011;18301;51.076;17.046;2023-01-15T06:55:02;2.88;;;1.90;;
31716;SDS011;18301;51.076;17.046;2023-01-15T07:00:05;4.95;;;2.28;;
31716;SDS011;18301;51.076;17.046;2023-01-15T07:05:10;2.95;;;1.70;;
31716;SDS011;18301;51.076;17.046;2023-01-15T07:10:11;1.65;;;1.40;;
31716;SDS011;18301;51.076;17.046;2023-01-15T07:15:13;1.80;;;1.48;;
31716;SDS011;18301;51.076;17.046;2023-01-15T07:20:15;2.63;;;1.70;;
31716;SDS011;18301;51.076;17.046;2023-01-15T07:25:18;4.45;;;2.30;;
31716;SDS011;18301;51.076;17.046;2023-01-15T07:30:20;3.10;;;1.98;;
31716;SDS011;18301;51.076;17.046;2023-01-15T07:35:21;2.90;;;2.03;;
31716;SDS011;18301;51.076;17.046;2023-01-15T07:40:23;1.80;;;1.50;;
31716;SDS011;18301;51.076;17.046;2023-01-15T07:45:24;3.47;;;2.10;;
31716;SDS011;18301;51.076;17.046;2023-01-15T07:50:44;2.42;;;1.98;;
31716;SDS011;18301;51.076;17.046;2023-01-15T07:55:46;3.28;;;2.20;;
31716;SDS011;18301;51.076;17.046;2023-01-15T08:00:48;2.65;;;2.05;;
31716;SDS011;18301;51.076;17.046;2023-01-15T08:05:49;3.08;;;2.10;;
31716;SDS011;18301;51.076;17.046;2023-01-15T08:10:51;3.33;;;2.10;;
31716;SDS011;18301;51.076;17.046;2023-01-15T08:16:10;2.50;;;2.00;;
31716;SDS011;18301;51.076;17.046;2023-01-15T08:21:13;3.38;;;2.55;;
31716;SDS011;18301;51.076;17.046;2023-01-15T08:26:15;4.13;;;2.65;;
31716;SDS011;18301;51.076;17.046;2023-01-15T08:31:17;2.63;;;2.33;;
31716;SDS011;18301;51.076;17.046;2023-01-15T08:36:18;3.53;;;2.60;;
31716;SDS011;18301;51.076;17.046;2023-01-15T08:41:20;3.55;;;2.60;;
31716;SDS011;18301;51.076;17.046;2023-01-15T08:46:21;5.63;;;3.42;;
31716;SDS011;18301;51.076;17.046;2023-01-15T08:51:23;3.60;;;2.65;;
31716;SDS011;18301;51.076;17.046;2023-01-15T08:56:24;3.78;;;2.80;;
31716;SDS011;18301;51.076;17.046;2023-01-15T09:01:26;4.15;;;3.10;;
31716;SDS011;18301;51.076;17.046;2023-01-15T09:06:27;4.32;;;2.70;;
31716;SDS011;18301;51.076;17.046;2023-01-15T09:11:29;4.03;;;2.90;;
31716;SDS011;18301;51.076;17.046;2023-01-15T09:16:30;4.25;;;2.92;;
31716;SDS011;18301;51.076;17.046;2023-01-15T09:21:33;4.88;;;2.20;;
31716;SDS011;18301;51.076;17.046;2023-01-15T09:26:35;5.28;;;2.80;;
31716;SDS011;18301;51.076;17.046;2023-01-15T09:31:38;4.28;;;3.10;;
31716;SDS011;18301;51.076;17.046;2023-01-15T09:36:39;3.40;;;2.28;;
31716;SDS011;18301;51.076;17.046;2023-01-15T09:41:50;3.25;;;2.60;;
31716;SDS011;18301;51.076;17.046;2023-01-15T09:47:10;5.63;;;3.10;;
31716;SDS011;18301;51.076;17.046;2023-01-15T10:02:56;9.65;;;4.70;;
31716;SDS011;18301;51.076;17.046;2023-01-15T10:08:14;5.15;;;3.22;;
31716;SDS011;18301;51.076;17.046;2023-01-15T10:13:33;9.43;;;6.68;;
31716;SDS011;18301;51.076;17.046;2023-01-15T10:18:41;4.95;;;3.40;;
31716;SDS011;18301;51.076;17.046;2023-01-15T10:24:05;5.00;;;3.20;;
31716;SDS011;18301;51.076;17.046;2023-01-15T10:45:24;5.30;;;3.40;;
31716;SDS011;18301;51.076;17.046;2023-01-15T10:50:27;6.85;;;3.45;;
31716;SDS011;18301;51.076;17.046;2023-01-15T10:55:34;4.85;;;3.00;;
31716;SDS011;18301;51.076;17.046;2023-01-15T11:00:38;4.55;;;2.67;;
31716;SDS011;18301;51.076;17.046;2023-01-15T11:05:41;4.40;;;3.00;;
31716;SDS011;18301;51.076;17.046;2023-01-15T11:10:45;5.88;;;2.83;;
31716;SDS011;18301;51.076;17.046;2023-01-15T11:15:47;4.00;;;2.78;;
31716;SDS011;18301;51.076;17.046;2023-01-15T11:21:12;5.13;;;2.85;;
31716;SDS011;18301;51.076;17.046;2023-01-15T11:26:19;3.25;;;2.42;;
31716;SDS011;18301;51.076;17.046;2023-01-15T11:31:33;5.82;;;3.58;;
31716;SDS011;18301;51.076;17.046;2023-01-15T11:36:36;5.60;;;3.80;;
31716;SDS011;18301;51.076;17.046;2023-01-15T11:41:37;5.60;;;3.72;;
31716;SDS011;18301;51.076;17.046;2023-01-15T11:46:57;5.65;;;3.35;;
31716;SDS011;18301;51.076;17.046;2023-01-15T11:52:21;6.60;;;3.38;;
31716;SDS011;18301;51.076;17.046;2023-01-15T11:57:29;6.43;;;3.50;;
31716;SDS011;18301;51.076;17.046;2023-01-15T12:02:36;5.72;;;3.58;;
31716;SDS011;18301;51.076;17.046;2023-01-15T12:07:51;4.75;;;3.30;;
31716;SDS011;18301;51.076;17.046;2023-01-15T12:13:08;3.92;;;3.13;;
31716;SDS011;18301;51.076;17.046;2023-01-15T12:18:30;4.43;;;3.13;;
31716;SDS011;18301;51.076;17.046;2023-01-15T12:39:43;6.53;;;4.28;;
31716;SDS011;18301;51.076;17.046;2023-01-15T12:44:55;8.65;;;3.80;;
31716;SDS011;18301;51.076;17.046;2023-01-15T12:55:38;2.42;;;1.48;;
31716;SDS011;18301;51.076;17.046;2023-01-15T13:00:45;1.33;;;1.00;;
31716;SDS011;18301;51.076;17.046;2023-01-15T13:05:51;1.70;;;1.45;;
31716;SDS011;18301;51.076;17.046;2023-01-15T13:10:56;1.15;;;0.85;;
31716;SDS011;18301;51.076;17.046;2023-01-15T13:21:15;0.95;;;0.70;;
31716;SDS011;18301;51.076;17.046;2023-01-15T13:31:58;1.95;;;0.88;;
31716;SDS011;18301;51.076;17.046;2023-01-15T13:37:16;2.20;;;1.02;;
31716;SDS011;18301;51.076;17.046;2023-01-15T13:42:23;1.20;;;0.90;;
31716;SDS011;18301;51.076;17.046;2023-01-15T13:47:33;3.67;;;1.27;;
31716;SDS011;18301;51.076;17.046;2023-01-15T13:52:38;1.80;;;1.30;;
31716;SDS011;18301;51.076;17.046;2023-01-15T13:57:40;2.28;;;1.35;;
31716;SDS011;18301;51.076;17.046;2023-01-15T14:02:50;2.35;;;1.55;;
31716;SDS011;18301;51.076;17.046;2023-01-15T14:07:52;3.00;;;2.22;;
31716;SDS011;18301;51.076;17.046;2023-01-15T14:18:16;2.67;;;2.28;;
31716;SDS011;18301;51.076;17.046;2023-01-15T14:29:00;2.65;;;2.08;;
31716;SDS011;18301;51.076;17.046;2023-01-15T14:34:16;3.80;;;2.50;;
31716;SDS011;18301;51.076;17.046;2023-01-15T14:44:45;4.15;;;2.65;;
31716;SDS011;18301;51.076;17.046;2023-01-15T14:49:58;5.50;;;3.28;;
31716;SDS011;18301;51.076;17.046;2023-01-15T14:55:48;4.30;;;2.80;;
31716;SDS011;18301;51.076;17.046;2023-01-15T15:00:50;7.20;;;3.88;;
31716;SDS011;18301;51.076;17.046;2023-01-15T15:05:56;11.02;;;6.40;;
31716;SDS011;18301;51.076;17.046;2023-01-15T15:10:57;6.35;;;3.72;;
31716;SDS011;18301;51.076;17.046;2023-01-15T15:16:10;7.15;;;3.95;;
31716;SDS011;18301;51.076;17.046;2023-01-15T15:21:26;6.18;;;4.18;;
31716;SDS011;18301;51.076;17.046;2023-01-15T15:26:31;16.38;;;9.85;;
31716;SDS011;18301;51.076;17.046;2023-01-15T15:31:35;11.63;;;6.88;;
31716;SDS011;18301;51.076;17.046;2023-01-15T15:36:45;11.88;;;7.13;;
31716;SDS011;18301;51.076;17.046;2023-01-15T15:41:47;12.57;;;7.93;;
31716;SDS011;18301;51.076;17.046;2023-01-15T15:47:17;15.32;;;9.10;;
31716;SDS011;18301;51.076;17.046;2023-01-15T15:52:42;12.00;;;7.57;;
31716;SDS011;18301;51.076;17.046;2023-01-15T15:57:45;14.55;;;8.52;;
31716;SDS011;18301;51.076;17.046;2023-01-15T16:02:51;10.13;;;6.15;;
31716;SDS011;18301;51.076;17.046;2023-01-15T16:07:53;12.15;;;6.32;;
31716;SDS011;18301;51.076;17.046;2023-01-15T16:12:57;12.18;;;6.65;;
31716;SDS011;18301;51.076;17.046;2023-01-15T16:18:02;12.70;;;6.32;;
31716;SDS011;18301;51.076;17.046;2023-01-15T16:23:17;13.73;;;7.20;;
31716;SDS011;18301;51.076;17.046;2023-01-15T16:28:22;24.65;;;11.82;;
31716;SDS011;18301;51.076;17.046;2023-01-15T16:33:26;21.55;;;10.45;;
31716;SDS011;18301;51.076;17.046;2023-01-15T16:38:28;24.88;;;12.05;;
31716;SDS011;18301;51.076;17.046;2023-01-15T16:43:29;15.30;;;8.02;;
31716;SDS011;18301;51.076;17.046;2023-01-15T16:48:37;14.20;;;8.18;;
31716;SDS011;18301;51.076;17.046;2023-01-15T16:53:41;11.50;;;6.50;;
31716;SDS011;18301;51.076;17.046;2023-01-15T16:58:43;16.75;;;10.18;;
31716;SDS011;18301;51.076;17.046;2023-01-15T17:03:44;15.20;;;7.53;;
31716;SDS011;18301;51.076;17.046;2023-01-15T17:08:47;14.95;;;8.07;;
31716;SDS011;18301;51.076;17.046;2023-01-15T17:13:49;14.18;;;7.38;;
31716;SDS011;18301;51.076;17.046;2023-01-15T17:18:51;12.77;;;6.95;;
31716;SDS011;18301;51.076;17.046;2023-01-15T17:23:53;14.95;;;8.07;;
31716;SDS011;18301;51.076;17.046;2023-01-15T17:28:56;14.93;;;7.95;;
31716;SDS011;18301;51.076;17.046;2023-01-15T17:33:58;17.90;;;8.13;;
31716;SDS011;18301;51.076;17.046;2023-01-15T17:39:00;15.13;;;8.55;;
31716;SDS011;18301;51.076;17.046;2023-01-15T17:44:02;15.18;;;8.73;;
31716;SDS011;18301;51.076;17.046;2023-01-15T17:49:04;18.95;;;9.95;;
31716;SDS011;18301;51.076;17.046;2023-01-15T17:54:05;18.05;;;9.73;;
31716;SDS011;18301;51.076;17.046;2023-01-15T17:59:07;22.17;;;10.00;;
31716;SDS011;18301;51.076;17.046;2023-01-15T18:04:34;16.35;;;8.85;;
31716;SDS011;18301;51.076;17.046;2023-01-15T18:10:00;18.92;;;9.27;;
31716;SDS011;18301;51.076;17.046;2023-01-15T18:15:02;14.60;;;8.88;;
31716;SDS011;18301;51.076;17.046;2023-01-15T18:20:03;17.48;;;9.82;;
31716;SDS011;18301;51.076;17.046;2023-01-15T18:25:05;17.75;;;9.93;;
31716;SDS011;18301;51.076;17.046;2023-01-15T18:30:11;19.27;;;10.85;;
31716;SDS011;18301;51.076;17.046;2023-01-15T18:35:14;19.73;;;10.48;;
31716;SDS011;18301;51.076;17.046;2023-01-15T18:40:16;20.05;;;10.77;;
31716;SDS011;18301;51.076;17.046;2023-01-15T18:45:17;15.82;;;9.00;;
31716;SDS011;18301;51.076;17.046;2023-01-15T18:50:37;13.18;;;7.40;;
31716;SDS011;18301;51.076;17.046;2023-01-15T18:55:38;13.63;;;8.20;;
31716;SDS011;18301;51.076;17.046;2023-01-15T19:00:40;15.57;;;8.27;;
31716;SDS011;18301;51.076;17.046;2023-01-15T19:05:41;20.77;;;9.93;;
31716;SDS011;18301;51.076;17.046;2023-01-15T19:10:43;23.13;;;12.13;;
31716;SDS011;18301;51.076;17.046;2023-01-15T19:15:44;21.90;;;11.95;;
31716;SDS011;18301;51.076;17.046;2023-01-15T19:21:05;18.40;;;9.95;;
31716;SDS011;18301;51.076;17.046;2023-01-15T19:26:08;19.10;;;10.27;;
31716;SDS011;18301;51.076;17.046;2023-01-15T19:31:09;18.67;;;9.93;;
31716;SDS011;18301;51.076;17.046;2023-01-15T19:36:29;18.42;;;9.20;;
31716;SDS011;18301;51.076;17.046;2023-01-15T19:41:31;13.82;;;7.30;;
31716;SDS011;18301;51.076;17.046;2023-01-15T19:46:51;10.10;;;6.32;;
31716;SDS011;18301;51.076;17.046;2023-01-15T19:52:11;9.90;;;5.93;;
31716;SDS011;18301;51.076;17.046;2023-01-15T19:57:31;11.65;;;6.05;;
31716;SDS011;18301;51.076;17.046;2023-01-15T20:02:33;15.00;;;6.32;;
31716;SDS011;18301;51.076;17.046;2023-01-15T20:07:34;11.85;;;6.72;;
31716;SDS011;18301;51.076;17.046;2023-01-15T20:12:36;14.00;;;7.70;;
31716;SDS011;18301;51.076;17.046;2023-01-15T20:17:56;15.40;;;8.80;;
31716;SDS011;18301;51.076;17.046;2023-01-15T20:22:58;15.68;;;8.55;;
31716;SDS011;18301;51.076;17.046;2023-01-15T20:27:59;14.32;;;8.13;;
31716;SDS011;18301;51.076;17.046;2023-01-15T20:33:01;14.82;;;7.55;;
31716;SDS011;18301;51.076;17.046;2023-01-15T20:38:03;13.70;;;6.85;;
31716;SDS011;18301;51.076;17.046;2023-01-15T20:43:04;14.32;;;7.28;;
31716;SDS011;18301;51.076;17.046;2023-01-15T20:48:24;15.13;;;7.32;;
31716;SDS011;18301;51.076;17.046;2023-01-15T20:53:44;19.23;;;8.98;;
31716;SDS011;18301;51.076;17.046;2023-01-15T20:58:46;27.00;;;11.85;;
31716;SDS011;18301;51.076;17.046;2023-01-15T21:03:47;20.75;;;10.23;;
31716;SDS011;18301;51.076;17.046;2023-01-15T21:08:49;17.63;;;8.50;;
31716;SDS011;18301;51.076;17.046;2023-01-15T21:13:50;12.57;;;6.75;;
31716;SDS011;18301;51.076;17.046;2023-01-15T21:18:52;12.77;;;6.43;;
31716;SDS011;18301;51.076;17.046;2023-01-15T21:23:53;13.93;;;7.55;;
31716;SDS011;18301;51.076;17.046;2023-01-15T21:28:55;15.45;;;7.55;;
31716;SDS011;18301;51.076;17.046;2023-01-15T21:33:56;15.70;;;7.30;;
31716;SDS011;18301;51.076;17.046;2023-01-15T21:38:59;14.38;;;6.82;;
31716;SDS011;18301;51.076;17.046;2023-01-15T21:44:02;17.48;;;7.85;;
31716;SDS011;18301;51.076;17.046;2023-01-15T21:49:22;20.88;;;9.05;;
31716;SDS011;18301;51.076;17.046;2023-01-15T21:54:23;28.05;;;9.27;;
31716;SDS011;18301;51.076;17.046;2023-01-15T21:59:25;47.47;;;14.27;;
31716;SDS011;18301;51.076;17.046;2023-01-15T22:04:27;28.85;;;9.48;;
31716;SDS011;18301;51.076;17.046;2023-01-15T22:09:30;18.10;;;6.45;;
31716;SDS011;18301;51.076;17.046;2023-01-15T22:14:31;16.83;;;4.70;;
31716;SDS011;18301;51.076;17.046;2023-01-15T22:19:33;14.40;;;4.85;;
31716;SDS011;18301;51.076;17.046;2023-01-15T22:24:36;9.48;;;3.55;;
31716;SDS011;18301;51.076;17.046;2023-01-15T22:29:40;10.73;;;4.03;;
31716;SDS011;18301;51.076;17.046;2023-01-15T22:34:42;15.70;;;5.38;;
31716;SDS011;18301;51.076;17.046;2023-01-15T22:39:44;14.20;;;4.80;;
31716;SDS011;18301;51.076;17.046;2023-01-15T22:44:46;12.98;;;4.80;;
31716;SDS011;18301;51.076;17.046;2023-01-15T22:49:49;9.00;;;4.18;;
31716;SDS011;18301;51.076;17.046;2023-01-15T22:54:50;8.15;;;3.45;;
31716;SDS011;18301;51.076;17.046;2023-01-15T22:59:52;6.10;;;2.30;;
31716;SDS011;18301;51.076;17.046;2023-01-15T23:04:54;8.02;;;3.20;;
31716;SDS011;18301;51.076;17.046;2023-01-15T23:09:55;4.70;;;2.08;;
31716;SDS011;18301;51.076;17.046;2023-01-15T23:14:57;4.35;;;2.50;;
31716;SDS011;18301;51.076;17.046;2023-01-15T23:19:58;4.95;;;2.05;;
31716;SDS011;18301;51.076;17.046;2023-01-15T23:25:00;6.75;;;2.33;;
31716;SDS011;18301;51.076;17.046;2023-01-15T23:30:02;6.35;;;2.65;;
31716;SDS011;18301;51.076;17.046;2023-01-15T23:35:05;4.22;;;1.70;;
31716;SDS011;18301;51.076;17.046;2023-01-15T23:40:07;4.80;;;2.30;;
31716;SDS011;18301;51.076;17.046;2023-01-15T23:45:10;5.78;;;2.17;;
31716;SDS011;18301;51.076;17.046;2023-01-15T23:50:30;4.03;;;2.10;;
31716;SDS011;18301;51.076;17.046;2023-01-15T23:55:31;4.57;;;2.22;;
